sensor_id;sensor_type;location;lat;lon;timestamp;pressure;altitude;pressure_sealevel;temperature;humidity
8334;BME280;4204;43.004;23.052;2022-11-11T00:02:09;94968.56;;;5.42;100.00
8334;BME280;4204;43.004;23.052;2022-11-11T00:04:56;94970.81;;;5.28;100.00
8334;BME280;4204;43.004;23.052;2022-11-11T00:07:42;94943.69;;;5.33;100.00
8334;BME280;4204;43.004;23.052;2022-11-11T00:10:30;94966.88;;;5.62;100.00
8334;BME280;4204;43.004;23.052;2022-11-11T00:13:16;94962.69;;;5.66;100.00
8334;BME280;4204;43.004;23.052;2022-11-11T00:16:04;94969.31;;;5.74;100.00
8334;BME280;4204;43.004;23.052;2022-11-11T00:18:50;94960.47;;;5.53;100.00
8334;BME280;4204;43.004;23.052;2022-11-11T00:21:54;94963.00;;;5.38;100.00
8334;BME280;4204;43.004;23.052;2022-11-11T00:24:58;94963.19;;;5.32;100.00
8334;BME280;4204;43.004;23.052;2022-11-11T00:27:54;94951.28;;;5.24;100.00
8334;BME280;4204;43.004;23.052;2022-11-11T00:30:40;94959.94;;;5.20;100.00
8334;BME280;4204;43.004;23.052;2022-11-11T00:33:27;94950.16;;;5.15;100.00
8334;BME280;4204;43.004;23.052;2022-11-11T00:36:13;94945.75;;;5.26;100.00
8334;BME280;4204;43.004;23.052;2022-11-11T00:38:58;94945.97;;;5.19;100.00
8334;BME280;4204;43.004;23.052;2022-11-11T00:41:44;94939.16;;;5.23;100.00
8334;BME280;4204;43.004;23.052;2022-11-11T00:44:32;94942.88;;;5.27;100.00
8334;BME280;4204;43.004;23.052;2022-11-11T00:47:18;94940.56;;;5.04;100.00
8334;BME280;4204;43.004;23.052;2022-11-11T00:50:24;94951.34;;;5.34;100.00
8334;BME280;4204;43.004;23.052;2022-11-11T00:53:29;94941.81;;;5.65;100.00
8334;BME280;4204;43.004;23.052;2022-11-11T00:56:16;94943.75;;;5.80;100.00
8334;BME280;4204;43.004;23.052;2022-11-11T00:59:03;94953.78;;;5.41;100.00
8334;BME280;4204;43.004;23.052;2022-11-11T01:01:51;94948.69;;;5.29;100.00
8334;BME280;4204;43.004;23.052;2022-11-11T01:04:37;94955.53;;;5.25;100.00
8334;BME280;4204;43.004;23.052;2022-11-11T01:07:23;94953.56;;;5.16;100.00
8334;BME280;4204;43.004;23.052;2022-11-11T01:10:09;94939.97;;;4.97;100.00
8334;BME280;4204;43.004;23.052;2022-11-11T01:12:55;94955.84;;;5.02;100.00
8334;BME280;4204;43.004;23.052;2022-11-11T01:15:58;94955.66;;;5.09;100.00
8334;BME280;4204;43.004;23.052;2022-11-11T01:18:46;94959.97;;;4.93;100.00
8334;BME280;4204;43.004;23.052;2022-11-11T01:21:33;94950.16;;;4.88;100.00
8334;BME280;4204;43.004;23.052;2022-11-11T01:24:19;94960.16;;;4.86;100.00
8334;BME280;4204;43.004;23.052;2022-11-11T01:27:05;94956.78;;;4.91;100.00
8334;BME280;4204;43.004;23.052;2022-11-11T01:29:51;94952.81;;;4.88;100.00
8334;BME280;4204;43.004;23.052;2022-11-11T01:32:38;94943.66;;;4.96;100.00
8334;BME280;4204;43.004;23.052;2022-11-11T01:35:25;94932.78;;;4.87;100.00
8334;BME280;4204;43.004;23.052;2022-11-11T01:38:11;94944.34;;;4.86;100.00
8334;BME280;4204;43.004;23.052;2022-11-11T01:40:57;94960.69;;;4.83;100.00
8334;BME280;4204;43.004;23.052;2022-11-11T01:43:44;94944.75;;;5.00;100.00
8334;BME280;4204;43.004;23.052;2022-11-11T01:46:32;94949.38;;;5.20;100.00
8334;BME280;4204;43.004;23.052;2022-11-11T01:49:29;94946.34;;;5.33;100.00
8334;BME280;4204;43.004;23.052;2022-11-11T01:52:19;94943.78;;;5.43;100.00
8334;BME280;4204;43.004;23.052;2022-11-11T01:55:11;94949.56;;;5.40;100.00
8334;BME280;4204;43.004;23.052;2022-11-11T01:58:00;94947.06;;;5.23;100.00
8334;BME280;4204;43.004;23.052;2022-11-11T02:00:48;94954.88;;;5.13;100.00
8334;BME280;4204;43.004;23.052;2022-11-11T02:03:38;94941.91;;;5.07;100.00
8334;BME280;4204;43.004;23.052;2022-11-11T02:06:25;94947.88;;;4.97;100.00
8334;BME280;4204;43.004;23.052;2022-11-11T02:09:11;94931.78;;;4.93;100.00
8334;BME280;4204;43.004;23.052;2022-11-11T02:12:00;94938.06;;;4.92;100.00
8334;BME280;4204;43.004;23.052;2022-11-11T02:15:07;94937.97;;;4.82;100.00
8334;BME280;4204;43.004;23.052;2022-11-11T02:17:53;94938.34;;;4.91;100.00
8334;BME280;4204;43.004;23.052;2022-11-11T02:20:42;94924.66;;;4.94;100.00
8334;BME280;4204;43.004;23.052;2022-11-11T02:23:33;94936.03;;;5.00;100.00
8334;BME280;4204;43.004;23.052;2022-11-11T02:26:24;94931.25;;;4.97;100.00
8334;BME280;4204;43.004;23.052;2022-11-11T02:29:13;94932.31;;;4.96;100.00
8334;BME280;4204;43.004;23.052;2022-11-11T02:32:00;94940.78;;;4.98;100.00
8334;BME280;4204;43.004;23.052;2022-11-11T02:34:47;94932.03;;;4.92;100.00
8334;BME280;4204;43.004;23.052;2022-11-11T02:37:33;94941.06;;;5.01;100.00
8334;BME280;4204;43.004;23.052;2022-11-11T02:40:23;94936.41;;;5.13;100.00
8334;BME280;4204;43.004;23.052;2022-11-11T02:43:12;94940.38;;;5.11;100.00
8334;BME280;4204;43.004;23.052;2022-11-11T02:45:59;94946.72;;;5.15;100.00
8334;BME280;4204;43.004;23.052;2022-11-11T02:48:45;94949.59;;;5.45;100.00
8334;BME280;4204;43.004;23.052;2022-11-11T02:51:32;94949.72;;;5.65;100.00
8334;BME280;4204;43.004;23.052;2022-11-11T02:54:18;94949.28;;;5.73;100.00
8334;BME280;4204;43.004;23.052;2022-11-11T02:57:04;94949.19;;;5.63;100.00
8334;BME280;4204;43.004;23.052;2022-11-11T02:59:56;94939.16;;;5.60;100.00
8334;BME280;4204;43.004;23.052;2022-11-11T03:02:43;94940.19;;;5.59;100.00
8334;BME280;4204;43.004;23.052;2022-11-11T03:05:29;94944.22;;;5.66;100.00
8334;BME280;4204;43.004;23.052;2022-11-11T03:08:15;94933.44;;;5.78;100.00
8334;BME280;4204;43.004;23.052;2022-11-11T03:11:01;94935.22;;;5.67;100.00
8334;BME280;4204;43.004;23.052;2022-11-11T03:13:48;94936.53;;;5.65;100.00
8334;BME280;4204;43.004;23.052;2022-11-11T03:16:35;94929.41;;;5.60;100.00
8334;BME280;4204;43.004;23.052;2022-11-11T03:19:39;94925.16;;;5.59;100.00
8334;BME280;4204;43.004;23.052;2022-11-11T03:22:26;94934.94;;;5.64;100.00
8334;BME280;4204;43.004;23.052;2022-11-11T03:25:12;94940.81;;;5.71;100.00
8334;BME280;4204;43.004;23.052;2022-11-11T03:28:17;94935.28;;;5.78;100.00
8334;BME280;4204;43.004;23.052;2022-11-11T03:31:04;94933.03;;;5.96;100.00
8334;BME280;4204;43.004;23.052;2022-11-11T03:33:51;94929.97;;;6.14;100.00
8334;BME280;4204;43.004;23.052;2022-11-11T03:36:38;94938.72;;;6.20;100.00
8334;BME280;4204;43.004;23.052;2022-11-11T03:39:38;94925.78;;;6.23;100.00
8334;BME280;4204;43.004;23.052;2022-11-11T03:42:24;94930.06;;;6.34;100.00
8334;BME280;4204;43.004;23.052;2022-11-11T03:45:10;94923.47;;;6.42;100.00
8334;BME280;4204;43.004;23.052;2022-11-11T03:47:56;94919.78;;;6.48;100.00
8334;BME280;4204;43.004;23.052;2022-11-11T03:50:45;94931.94;;;6.54;100.00
8334;BME280;4204;43.004;23.052;2022-11-11T03:53:32;94938.91;;;6.70;100.00
8334;BME280;4204;43.004;23.052;2022-11-11T03:56:18;94938.13;;;6.90;100.00
8334;BME280;4204;43.004;23.052;2022-11-11T03:59:04;94931.78;;;6.86;100.00
8334;BME280;4204;43.004;23.052;2022-11-11T04:01:51;94931.50;;;6.72;100.00
8334;BME280;4204;43.004;23.052;2022-11-11T04:04:55;94929.91;;;6.76;100.00
8334;BME280;4204;43.004;23.052;2022-11-11T04:08:00;94927.00;;;6.78;100.00
8334;BME280;4204;43.004;23.052;2022-11-11T04:11:06;94932.56;;;6.81;100.00
8334;BME280;4204;43.004;23.052;2022-11-11T04:13:55;94933.38;;;6.87;100.00
8334;BME280;4204;43.004;23.052;2022-11-11T04:17:02;94948.19;;;6.93;100.00
8334;BME280;4204;43.004;23.052;2022-11-11T04:19:48;94943.44;;;7.00;100.00
8334;BME280;4204;43.004;23.052;2022-11-11T04:22:51;94942.13;;;7.12;100.00
8334;BME280;4204;43.004;23.052;2022-11-11T04:25:39;94936.03;;;7.12;100.00
8334;BME280;4204;43.004;23.052;2022-11-11T04:28:34;94936.81;;;7.12;100.00
8334;BME280;4204;43.004;23.052;2022-11-11T04:31:37;94940.81;;;7.25;100.00
8334;BME280;4204;43.004;23.052;2022-11-11T04:34:45;94930.75;;;7.27;100.00
8334;BME280;4204;43.004;23.052;2022-11-11T04:37:35;94934.47;;;7.31;100.00
8334;BME280;4204;43.004;23.052;2022-11-11T04:40:22;94948.75;;;7.35;100.00
8334;BME280;4204;43.004;23.052;2022-11-11T04:43:26;94942.13;;;7.38;100.00
8334;BME280;4204;43.004;23.052;2022-11-11T04:46:13;94945.59;;;7.18;100.00
8334;BME280;4204;43.004;23.052;2022-11-11T04:48:58;94946.63;;;7.17;100.00
8334;BME280;4204;43.004;23.052;2022-11-11T04:51:44;94947.16;;;7.19;100.00
8334;BME280;4204;43.004;23.052;2022-11-11T04:54:48;94937.63;;;7.33;100.00
8334;BME280;4204;43.004;23.052;2022-11-11T04:57:52;94935.25;;;7.21;100.00
8334;BME280;4204;43.004;23.052;2022-11-11T05:00:40;94942.91;;;7.33;100.00
8334;BME280;4204;43.004;23.052;2022-11-11T05:03:26;94926.50;;;7.31;100.00
8334;BME280;4204;43.004;23.052;2022-11-11T05:06:11;94939.22;;;7.49;100.00
8334;BME280;4204;43.004;23.052;2022-11-11T05:09:15;94950.34;;;7.61;100.00
8334;BME280;4204;43.004;23.052;2022-11-11T05:12:02;94943.47;;;7.55;100.00
8334;BME280;4204;43.004;23.052;2022-11-11T05:14:48;94961.44;;;7.53;100.00
8334;BME280;4204;43.004;23.052;2022-11-11T05:17:55;94967.28;;;7.75;100.00
8334;BME280;4204;43.004;23.052;2022-11-11T05:20:55;94964.91;;;7.74;100.00
8334;BME280;4204;43.004;23.052;2022-11-11T05:24:00;94968.31;;;7.79;100.00
8334;BME280;4204;43.004;23.052;2022-11-11T05:27:04;94969.91;;;7.80;100.00
8334;BME280;4204;43.004;23.052;2022-11-11T05:29:51;94976.00;;;7.86;100.00
8334;BME280;4204;43.004;23.052;2022-11-11T05:32:37;94971.47;;;7.91;100.00
8334;BME280;4204;43.004;23.052;2022-11-11T05:35:25;94978.34;;;7.97;100.00
8334;BME280;4204;43.004;23.052;2022-11-11T05:38:11;94984.19;;;8.04;100.00
8334;BME280;4204;43.004;23.052;2022-11-11T05:41:07;94989.72;;;8.13;100.00
8334;BME280;4204;43.004;23.052;2022-11-11T05:43:53;94984.19;;;8.04;100.00
8334;BME280;4204;43.004;23.052;2022-11-11T05:46:40;94986.00;;;8.09;100.00
8334;BME280;4204;43.004;23.052;2022-11-11T05:49:26;94997.38;;;8.19;100.00
8334;BME280;4204;43.004;23.052;2022-11-11T05:52:15;94997.41;;;8.30;100.00
8334;BME280;4204;43.004;23.052;2022-11-11T05:55:01;95001.38;;;8.27;100.00
8334;BME280;4204;43.004;23.052;2022-11-11T05:57:47;94999.19;;;8.44;100.00
8334;BME280;4204;43.004;23.052;2022-11-11T06:00:34;95003.31;;;8.80;100.00
8334;BME280;4204;43.004;23.052;2022-11-11T06:03:20;95008.00;;;8.98;100.00
8334;BME280;4204;43.004;23.052;2022-11-11T06:06:06;95023.09;;;9.08;100.00
8334;BME280;4204;43.004;23.052;2022-11-11T06:08:53;95031.31;;;9.07;100.00
8334;BME280;4204;43.004;23.052;2022-11-11T06:11:39;95010.91;;;9.02;100.00
8334;BME280;4204;43.004;23.052;2022-11-11T06:14:26;95020.22;;;9.00;100.00
8334;BME280;4204;43.004;23.052;2022-11-11T06:17:12;95027.38;;;8.99;100.00
8334;BME280;4204;43.004;23.052;2022-11-11T06:19:58;95029.50;;;8.97;100.00
8334;BME280;4204;43.004;23.052;2022-11-11T06:22:45;95030.53;;;9.06;100.00
8334;BME280;4204;43.004;23.052;2022-11-11T06:25:45;95034.00;;;9.02;100.00
8334;BME280;4204;43.004;23.052;2022-11-11T06:28:50;95041.16;;;9.06;100.00
8334;BME280;4204;43.004;23.052;2022-11-11T06:31:36;95048.81;;;9.08;100.00
8334;BME280;4204;43.004;23.052;2022-11-11T06:34:23;95042.72;;;9.12;100.00
8334;BME280;4204;43.004;23.052;2022-11-11T06:37:09;95034.97;;;9.21;100.00
8334;BME280;4204;43.004;23.052;2022-11-11T06:39:55;95051.44;;;9.18;100.00
8334;BME280;4204;43.004;23.052;2022-11-11T06:42:43;95045.59;;;9.16;100.00
8334;BME280;4204;43.004;23.052;2022-11-11T06:45:30;95044.84;;;9.10;100.00
8334;BME280;4204;43.004;23.052;2022-11-11T06:48:17;95055.94;;;9.17;100.00
8334;BME280;4204;43.004;23.052;2022-11-11T06:51:05;95055.91;;;9.22;100.00
8334;BME280;4204;43.004;23.052;2022-11-11T06:53:51;95058.50;;;9.32;100.00
8334;BME280;4204;43.004;23.052;2022-11-11T06:56:38;95069.66;;;9.34;100.00
8334;BME280;4204;43.004;23.052;2022-11-11T06:59:25;95071.44;;;9.44;100.00
8334;BME280;4204;43.004;23.052;2022-11-11T07:02:12;95070.94;;;9.42;100.00
8334;BME280;4204;43.004;23.052;2022-11-11T07:04:58;95076.81;;;9.39;100.00
8334;BME280;4204;43.004;23.052;2022-11-11T07:07:45;95076.00;;;9.38;100.00
8334;BME280;4204;43.004;23.052;2022-11-11T07:10:33;95087.69;;;9.37;100.00
8334;BME280;4204;43.004;23.052;2022-11-11T07:13:20;95083.16;;;9.38;100.00
8334;BME280;4204;43.004;23.052;2022-11-11T07:16:08;95085.56;;;9.39;100.00
8334;BME280;4204;43.004;23.052;2022-11-11T07:18:55;95091.44;;;9.31;100.00
8334;BME280;4204;43.004;23.052;2022-11-11T07:21:42;95095.63;;;9.47;100.00
8334;BME280;4204;43.004;23.052;2022-11-11T07:24:28;95096.09;;;9.54;100.00
8334;BME280;4204;43.004;23.052;2022-11-11T07:27:14;95091.34;;;9.51;100.00
8334;BME280;4204;43.004;23.052;2022-11-11T07:30:00;95099.38;;;9.41;100.00
8334;BME280;4204;43.004;23.052;2022-11-11T07:32:49;95102.22;;;9.50;100.00
8334;BME280;4204;43.004;23.052;2022-11-11T07:35:35;95107.00;;;9.53;100.00
8334;BME280;4204;43.004;23.052;2022-11-11T07:38:21;95103.00;;;9.55;100.00
8334;BME280;4204;43.004;23.052;2022-11-11T07:41:08;95109.56;;;9.68;100.00
8334;BME280;4204;43.004;23.052;2022-11-11T07:43:54;95120.13;;;9.78;100.00
8334;BME280;4204;43.004;23.052;2022-11-11T07:46:41;95110.84;;;9.70;100.00
8334;BME280;4204;43.004;23.052;2022-11-11T07:49:29;95095.19;;;9.69;100.00
8334;BME280;4204;43.004;23.052;2022-11-11T07:52:15;95099.47;;;9.70;100.00
8334;BME280;4204;43.004;23.052;2022-11-11T07:55:01;95106.63;;;9.69;100.00
8334;BME280;4204;43.004;23.052;2022-11-11T07:57:50;95100.00;;;9.67;100.00
8334;BME280;4204;43.004;23.052;2022-11-11T08:00:37;95097.31;;;9.72;100.00
8334;BME280;4204;43.004;23.052;2022-11-11T08:03:23;95102.63;;;9.72;100.00
8334;BME280;4204;43.004;23.052;2022-11-11T08:06:10;95091.94;;;9.82;100.00
8334;BME280;4204;43.004;23.052;2022-11-11T08:08:56;95098.50;;;9.90;100.00
8334;BME280;4204;43.004;23.052;2022-11-11T08:11:42;95097.16;;;9.97;100.00
8334;BME280;4204;43.004;23.052;2022-11-11T08:14:46;95098.34;;;10.15;100.00
8334;BME280;4204;43.004;23.052;2022-11-11T08:17:36;95099.91;;;10.21;100.00
8334;BME280;4204;43.004;23.052;2022-11-11T08:20:23;95102.44;;;10.36;100.00
8334;BME280;4204;43.004;23.052;2022-11-11T08:23:10;95111.72;;;10.38;100.00
8334;BME280;4204;43.004;23.052;2022-11-11T08:25:58;95119.94;;;10.42;100.00
8334;BME280;4204;43.004;23.052;2022-11-11T08:28:44;95115.88;;;10.49;100.00
8334;BME280;4204;43.004;23.052;2022-11-11T08:31:31;95114.56;;;10.47;100.00
8334;BME280;4204;43.004;23.052;2022-11-11T08:34:19;95120.69;;;10.47;100.00
8334;BME280;4204;43.004;23.052;2022-11-11T08:37:06;95114.22;;;10.53;100.00
8334;BME280;4204;43.004;23.052;2022-11-11T08:39:55;95113.50;;;10.48;100.00
8334;BME280;4204;43.004;23.052;2022-11-11T08:42:42;95114.28;;;10.48;100.00
8334;BME280;4204;43.004;23.052;2022-11-11T08:45:27;95116.66;;;10.50;100.00
8334;BME280;4204;43.004;23.052;2022-11-11T08:48:14;95111.34;;;10.50;100.00
8334;BME280;4204;43.004;23.052;2022-11-11T08:51:00;95114.28;;;10.48;100.00
8334;BME280;4204;43.004;23.052;2022-11-11T08:53:47;95114.22;;;10.53;100.00
8334;BME280;4204;43.004;23.052;2022-11-11T08:56:34;95113.09;;;10.59;100.00
8334;BME280;4204;43.004;23.052;2022-11-11T08:59:20;95118.19;;;10.61;100.00
8334;BME280;4204;43.004;23.052;2022-11-11T09:02:09;95120.41;;;10.78;100.00
8334;BME280;4204;43.004;23.052;2022-11-11T09:04:57;95116.44;;;10.75;100.00
8334;BME280;4204;43.004;23.052;2022-11-11T09:07:43;95113.44;;;10.82;100.00
8334;BME280;4204;43.004;23.052;2022-11-11T09:10:30;95126.97;;;10.85;100.00
8334;BME280;4204;43.004;23.052;2022-11-11T09:13:18;95122.13;;;10.92;100.00
8334;BME280;4204;43.004;23.052;2022-11-11T09:16:05;95129.00;;;10.93;100.00
8334;BME280;4204;43.004;23.052;2022-11-11T09:18:51;95135.69;;;10.91;100.00
8334;BME280;4204;43.004;23.052;2022-11-11T09:21:38;95139.09;;;10.96;100.00
8334;BME280;4204;43.004;23.052;2022-11-11T09:24:24;95134.91;;;10.90;100.00
8334;BME280;4204;43.004;23.052;2022-11-11T09:27:10;95130.66;;;10.89;100.00
8334;BME280;4204;43.004;23.052;2022-11-11T09:29:59;95121.94;;;10.84;100.00
8334;BME280;4204;43.004;23.052;2022-11-11T09:32:45;95130.44;;;10.86;100.00
8334;BME280;4204;43.004;23.052;2022-11-11T09:35:32;95117.97;;;10.81;100.00
8334;BME280;4204;43.004;23.052;2022-11-11T09:38:19;95123.78;;;10.83;100.00
8334;BME280;4204;43.004;23.052;2022-11-11T09:41:14;95120.84;;;10.85;100.00
8334;BME280;4204;43.004;23.052;2022-11-11T09:44:01;95127.53;;;10.82;100.00
8334;BME280;4204;43.004;23.052;2022-11-11T09:46:54;95121.03;;;10.93;100.00
8334;BME280;4204;43.004;23.052;2022-11-11T09:49:57;95123.66;;;10.98;100.00
8334;BME280;4204;43.004;23.052;2022-11-11T09:52:48;95120.75;;;11.18;100.00
8334;BME280;4204;43.004;23.052;2022-11-11T09:55:39;95102.66;;;11.15;100.00
8334;BME280;4204;43.004;23.052;2022-11-11T09:58:31;95114.84;;;11.21;100.00
8334;BME280;4204;43.004;23.052;2022-11-11T10:01:21;95112.06;;;11.31;100.00
8334;BME280;4204;43.004;23.052;2022-11-11T10:04:21;95105.59;;;11.37;100.00
8334;BME280;4204;43.004;23.052;2022-11-11T10:07:12;95112.75;;;11.42;100.00
8334;BME280;4204;43.004;23.052;2022-11-11T10:10:06;95116.25;;;11.37;100.00
8334;BME280;4204;43.004;23.052;2022-11-11T10:12:55;95106.66;;;11.36;100.00
8334;BME280;4204;43.004;23.052;2022-11-11T10:15:53;95114.00;;;11.45;100.00
8334;BME280;4204;43.004;23.052;2022-11-11T10:18:57;95103.44;;;11.39;100.00
8334;BME280;4204;43.004;23.052;2022-11-11T10:21:50;95111.44;;;11.39;100.00
8334;BME280;4204;43.004;23.052;2022-11-11T10:24:40;95105.53;;;11.43;100.00
8334;BME280;4204;43.004;23.052;2022-11-11T10:27:27;95099.03;;;11.49;100.00
8334;BME280;4204;43.004;23.052;2022-11-11T10:30:18;95088.84;;;11.56;100.00
8334;BME280;4204;43.004;23.052;2022-11-11T10:33:10;95069.59;;;11.59;100.00
8334;BME280;4204;43.004;23.052;2022-11-11T10:36:01;95081.56;;;11.61;100.00
8334;BME280;4204;43.004;23.052;2022-11-11T10:38:55;95082.53;;;11.70;100.00
8334;BME280;4204;43.004;23.052;2022-11-11T10:41:46;95078.16;;;11.79;100.00
8334;BME280;4204;43.004;23.052;2022-11-11T10:44:33;95085.53;;;12.01;100.00
8334;BME280;4204;43.004;23.052;2022-11-11T10:47:30;95086.16;;;12.11;100.00
8334;BME280;4204;43.004;23.052;2022-11-11T10:50:22;95077.19;;;12.21;100.00
8334;BME280;4204;43.004;23.052;2022-11-11T10:53:14;95071.63;;;12.36;100.00
8334;BME280;4204;43.004;23.052;2022-11-11T10:56:12;95057.78;;;12.34;100.00
8334;BME280;4204;43.004;23.052;2022-11-11T10:59:06;95058.09;;;12.33;100.00
8334;BME280;4204;43.004;23.052;2022-11-11T11:01:58;95062.31;;;12.34;100.00
8334;BME280;4204;43.004;23.052;2022-11-11T11:04:49;95061.44;;;12.38;100.00
8334;BME280;4204;43.004;23.052;2022-11-11T11:07:43;95061.25;;;12.35;100.00
8334;BME280;4204;43.004;23.052;2022-11-11T11:10:35;95054.53;;;12.37;100.00
8334;BME280;4204;43.004;23.052;2022-11-11T11:13:30;95071.63;;;12.36;100.00
8334;BME280;4204;43.004;23.052;2022-11-11T11:16:23;95045.91;;;12.27;100.00
8334;BME280;4204;43.004;23.052;2022-11-11T11:19:14;95065.31;;;12.46;100.00
8334;BME280;4204;43.004;23.052;2022-11-11T11:22:02;95054.75;;;12.41;100.00
8334;BME280;4204;43.004;23.052;2022-11-11T11:24:48;95052.56;;;12.43;100.00
8334;BME280;4204;43.004;23.052;2022-11-11T11:27:34;95058.78;;;12.38;100.00
8334;BME280;4204;43.004;23.052;2022-11-11T11:30:23;95057.22;;;12.37;100.00
8334;BME280;4204;43.004;23.052;2022-11-11T11:33:09;95055.91;;;12.35;100.00
8334;BME280;4204;43.004;23.052;2022-11-11T11:35:56;95052.88;;;12.41;100.00
8334;BME280;4204;43.004;23.052;2022-11-11T11:38:44;95050.09;;;12.46;100.00
8334;BME280;4204;43.004;23.052;2022-11-11T11:41:38;95054.25;;;12.52;100.00
8334;BME280;4204;43.004;23.052;2022-11-11T11:44:26;95038.34;;;12.47;100.00
8334;BME280;4204;43.004;23.052;2022-11-11T11:47:22;95051.81;;;12.56;100.00
8334;BME280;4204;43.004;23.052;2022-11-11T11:50:23;95046.44;;;12.42;100.00
8334;BME280;4204;43.004;23.052;2022-11-11T11:53:24;95036.06;;;12.41;100.00
8334;BME280;4204;43.004;23.052;2022-11-11T11:56:18;95034.19;;;12.41;100.00
8334;BME280;4204;43.004;23.052;2022-11-11T11:59:10;95038.03;;;12.35;100.00
8334;BME280;4204;43.004;23.052;2022-11-11T12:02:02;95041.41;;;12.41;100.00
8334;BME280;4204;43.004;23.052;2022-11-11T12:05:02;95049.09;;;12.42;100.00
8334;BME280;4204;43.004;23.052;2022-11-11T12:08:06;95044.94;;;12.36;100.00
8334;BME280;4204;43.004;23.052;2022-11-11T12:11:02;95036.00;;;12.27;100.00
8334;BME280;4204;43.004;23.052;2022-11-11T12:14:08;95038.19;;;12.25;100.00
8334;BME280;4204;43.004;23.052;2022-11-11T12:17:07;95031.78;;;12.26;100.00
8334;BME280;4204;43.004;23.052;2022-11-11T12:20:03;95021.78;;;12.18;100.00
8334;BME280;4204;43.004;23.052;2022-11-11T12:23:05;95015.97;;;12.16;100.00
8334;BME280;4204;43.004;23.052;2022-11-11T12:26:02;95014.69;;;12.27;100.00
8334;BME280;4204;43.004;23.052;2022-11-11T12:29:05;95006.59;;;12.32;100.00
8334;BME280;4204;43.004;23.052;2022-11-11T12:32:06;95012.44;;;12.48;100.00
8334;BME280;4204;43.004;23.052;2022-11-11T12:35:18;95017.19;;;12.51;100.00
8334;BME280;4204;43.004;23.052;2022-11-11T12:38:29;95027.69;;;12.47;100.00
8334;BME280;4204;43.004;23.052;2022-11-11T12:41:38;95020.44;;;12.48;100.00
8334;BME280;4204;43.004;23.052;2022-11-11T12:44:32;95029.97;;;12.54;100.00
8334;BME280;4204;43.004;23.052;2022-11-11T12:47:28;95019.06;;;12.50;100.00
8334;BME280;4204;43.004;23.052;2022-11-11T12:50:25;95023.72;;;12.45;100.00
8334;BME280;4204;43.004;23.052;2022-11-11T12:53:25;95019.84;;;12.37;100.00
8334;BME280;4204;43.004;23.052;2022-11-11T12:56:24;95027.75;;;12.29;100.00
8334;BME280;4204;43.004;23.052;2022-11-11T12:59:17;95020.72;;;12.33;100.00
8334;BME280;4204;43.004;23.052;2022-11-11T13:02:19;95022.78;;;12.36;100.00
8334;BME280;4204;43.004;23.052;2022-11-11T13:05:15;95020.31;;;12.26;100.00
8334;BME280;4204;43.004;23.052;2022-11-11T13:56:25;95052.91;;;11.90;100.00
8334;BME280;4204;43.004;23.052;2022-11-11T13:59:20;95054.25;;;11.88;100.00
8334;BME280;4204;43.004;23.052;2022-11-11T14:02:26;95046.25;;;11.88;100.00
8334;BME280;4204;43.004;23.052;2022-11-11T14:05:21;95052.69;;;11.87;100.00
8334;BME280;4204;43.004;23.052;2022-11-11T14:08:07;95051.31;;;11.89;100.00
8334;BME280;4204;43.004;23.052;2022-11-11T14:10:56;95048.56;;;11.94;100.00
8334;BME280;4204;43.004;23.052;2022-11-11T14:13:44;95052.69;;;11.87;100.00
8334;BME280;4204;43.004;23.052;2022-11-11T14:16:59;95048.81;;;11.79;100.00
8334;BME280;4204;43.004;23.052;2022-11-11T14:19:46;95048.59;;;11.76;100.00
8334;BME280;4204;43.004;23.052;2022-11-11T14:22:33;95056.88;;;11.74;100.00
8334;BME280;4204;43.004;23.052;2022-11-11T14:25:22;95056.09;;;11.74;100.00
8334;BME280;4204;43.004;23.052;2022-11-11T14:28:19;95047.09;;;11.70;100.00
8334;BME280;4204;43.004;23.052;2022-11-11T14:31:33;95056.44;;;11.67;100.00
8334;BME280;4204;43.004;23.052;2022-11-11T14:34:50;95054.69;;;11.58;100.00
8334;BME280;4204;43.004;23.052;2022-11-11T14:40:53;95055.06;;;11.51;100.00
8334;BME280;4204;43.004;23.052;2022-11-11T14:43:39;95059.59;;;11.69;100.00
8334;BME280;4204;43.004;23.052;2022-11-11T14:46:25;95066.34;;;11.67;100.00
8334;BME280;4204;43.004;23.052;2022-11-11T14:49:45;95060.34;;;11.75;100.00
8334;BME280;4204;43.004;23.052;2022-11-11T14:52:34;95068.91;;;11.72;100.00
8334;BME280;4204;43.004;23.052;2022-11-11T14:55:25;95069.53;;;11.64;100.00
8334;BME280;4204;43.004;23.052;2022-11-11T14:58:14;95068.59;;;11.55;100.00
8334;BME280;4204;43.004;23.052;2022-11-11T15:01:09;95076.00;;;11.58;100.00
8334;BME280;4204;43.004;23.052;2022-11-11T15:04:01;95069.69;;;11.54;100.00
8334;BME280;4204;43.004;23.052;2022-11-11T15:06:52;95070.03;;;11.47;100.00
8334;BME280;4204;43.004;23.052;2022-11-11T15:10:03;95064.63;;;11.33;100.00
8334;BME280;4204;43.004;23.052;2022-11-11T15:13:21;95064.91;;;11.32;100.00
8334;BME280;4204;43.004;23.052;2022-11-11T15:16:21;95066.72;;;11.36;100.00
8334;BME280;4204;43.004;23.052;2022-11-11T15:19:22;95064.97;;;11.27;100.00
8334;BME280;4204;43.004;23.052;2022-11-11T15:22:28;95066.03;;;11.26;100.00
8334;BME280;4204;43.004;23.052;2022-11-11T15:26:01;95065.47;;;11.10;100.00
8334;BME280;4204;43.004;23.052;2022-11-11T15:29:09;95071.59;;;11.11;100.00
8334;BME280;4204;43.004;23.052;2022-11-11T15:32:03;95062.13;;;11.00;100.00
8334;BME280;4204;43.004;23.052;2022-11-11T15:34:55;95082.03;;;11.26;100.00
8334;BME280;4204;43.004;23.052;2022-11-11T15:37:51;95086.72;;;11.34;100.00
8334;BME280;4204;43.004;23.052;2022-11-11T15:40:44;95086.75;;;11.10;100.00
8334;BME280;4204;43.004;23.052;2022-11-11T15:43:33;95091.06;;;11.06;100.00
8334;BME280;4204;43.004;23.052;2022-11-11T15:46:23;95094.78;;;11.05;100.00
8334;BME280;4204;43.004;23.052;2022-11-11T15:49:12;95076.78;;;10.97;100.00
8334;BME280;4204;43.004;23.052;2022-11-11T15:51:59;95080.72;;;11.05;100.00
8334;BME280;4204;43.004;23.052;2022-11-11T15:54:46;95086.25;;;10.85;100.00
8334;BME280;4204;43.004;23.052;2022-11-11T15:57:34;95086.66;;;10.73;100.00
8334;BME280;4204;43.004;23.052;2022-11-11T16:00:26;95093.97;;;10.57;100.00
8334;BME280;4204;43.004;23.052;2022-11-11T16:03:15;95092.00;;;10.44;100.00
8334;BME280;4204;43.004;23.052;2022-11-11T16:06:04;95093.94;;;10.34;100.00